Time;durP1;ratioP1;P1;durP2;ratioP2;P2;SDS_P1;SDS_P2;PMS_P1;PMS_P2;Temp;Humidity;BMP_temperature;BMP_pressure;BME280_temperature;BME280_humidity;BME280_pressure;Samples;Min_cycle;Max_cycle;Signal;HPM_P1;HPM_P2
2022/01/28 00:02:05;;;;;;;12.52;2.17;;;;;;;4.19;86.45;102990.84;5104272;28;20019;-75
2022/01/28 00:04:31;;;;;;;12.90;2.20;;;;;;;4.16;86.14;102993.16;5103943;28;20024;-75
2022/01/28 00:06:56;;;;;;;17.73;1.85;;;;;;;4.13;86.08;103003.22;5102768;28;20311;-75
2022/01/28 00:09:21;;;;;;;15.75;2.45;;;;;;;4.09;86.21;103009.78;5092872;28;20025;-75
2022/01/28 00:11:46;;;;;;;13.18;2.00;;;;;;;4.07;86.01;103013.94;5089145;28;20025;-75
2022/01/28 00:14:22;;;;;;;9.77;2.55;;;;;;;4.05;85.61;103020.59;5079173;28;20041;-75
2022/01/28 00:17:21;;;;;;;18.92;1.92;;;;;;;4.03;86.25;103023.81;5100723;28;20066;-75
2022/01/28 00:38:29;;;;;;;11.55;2.10;;;;;;;3.88;86.38;103038.91;5107319;28;20137;-76
2022/01/28 00:40:54;;;;;;;15.75;2.53;;;;;;;3.87;86.80;103026.75;5107793;28;20035;-75
2022/01/28 00:43:20;;;;;;;17.08;2.70;;;;;;;3.88;87.05;103032.09;5106435;28;20095;-75
2022/01/28 00:45:45;;;;;;;15.00;2.00;;;;;;;3.87;86.87;103026.75;5107968;28;20020;-75
2022/01/28 00:48:10;;;;;;;13.60;2.00;;;;;;;3.86;87.06;103024.97;5100960;28;20027;-75
2022/01/28 00:50:36;;;;;;;9.07;1.92;;;;;;;3.84;87.01;103027.44;5099277;28;20313;-75
2022/01/28 00:53:01;;;;;;;12.75;2.10;;;;;;;3.84;87.04;103022.28;5106231;28;20238;-75
2022/01/28 00:55:27;;;;;;;13.60;2.22;;;;;;;3.85;86.98;103026.63;5107598;28;20015;-75
2022/01/28 00:57:52;;;;;;;11.40;1.90;;;;;;;3.87;87.22;103029.34;5093178;28;20091;-75
2022/01/28 01:00:17;;;;;;;19.45;2.67;;;;;;;3.85;86.98;103030.91;5107554;28;20016;-75
2022/01/28 01:02:43;;;;;;;8.48;1.60;;;;;;;3.82;87.36;103029.88;5105811;28;20054;-75
2022/01/28 01:05:08;;;;;;;17.00;2.35;;;;;;;3.80;86.99;103030.50;5107297;28;20028;-75
2022/01/28 01:07:34;;;;;;;10.88;1.73;;;;;;;3.79;87.24;103031.28;5105917;28;20031;-75
2022/01/28 01:09:59;;;;;;;14.25;2.25;;;;;;;3.77;87.25;103033.72;5095061;28;20024;-75
2022/01/28 01:12:27;;;;;;;10.32;1.90;;;;;;;3.78;87.10;103039.75;5103686;28;20012;-75
2022/01/28 01:14:52;;;;;;;13.45;1.83;;;;;;;3.77;87.20;103043.13;5107712;28;20036;-75
2022/01/28 01:17:29;;;;;;;12.20;2.05;;;;;;;3.78;87.08;103042.34;5107563;28;20047;-75
2022/01/28 01:20:10;;;;;;;10.70;2.13;;;;;;;3.77;87.15;103049.19;5107185;28;20024;-75
2022/01/28 01:22:39;;;;;;;18.60;2.38;;;;;;;3.77;87.06;103040.56;5106916;28;20091;-75
2022/01/28 01:25:14;;;;;;;16.10;2.15;;;;;;;3.76;87.57;103041.31;5107089;28;20162;-75
2022/01/28 01:27:40;;;;;;;15.02;2.08;;;;;;;3.78;87.42;103043.28;5092063;28;20271;-75
2022/01/28 01:30:06;;;;;;;13.70;2.00;;;;;;;3.78;87.83;103047.50;5079987;28;20025;-75
2022/01/28 01:32:31;;;;;;;18.63;3.42;;;;;;;3.81;87.38;103045.22;5100478;28;20028;-75
2022/01/28 01:34:56;;;;;;;11.05;2.00;;;;;;;3.82;87.50;103052.16;5106966;28;20023;-75
2022/01/28 01:37:22;;;;;;;13.07;1.83;;;;;;;3.83;87.58;103051.41;5105488;28;20130;-75
2022/01/28 01:39:47;;;;;;;12.88;2.00;;;;;;;3.84;87.48;103055.78;5106779;28;20270;-75
2022/01/28 01:42:25;;;;;;;14.77;2.20;;;;;;;3.85;87.67;103069.59;5101426;28;20027;-75
2022/01/28 01:52:48;;;;;;;14.15;1.92;;;;;;;3.82;87.61;103083.09;5083764;28;20014;-75
2022/01/28 01:55:13;;;;;;;10.18;1.83;;;;;;;3.81;87.28;103105.41;5087327;28;20036;-75
2022/01/28 01:57:39;;;;;;;13.10;2.17;;;;;;;3.80;87.98;103098.44;5089024;28;20015;-75
2022/01/28 02:00:06;;;;;;;15.15;2.03;;;;;;;3.79;87.82;103106.06;5091751;28;20259;-75
2022/01/28 02:02:32;;;;;;;14.00;2.35;;;;;;;3.78;87.84;103114.53;5088460;28;20028;-75
2022/01/28 02:04:57;;;;;;;14.38;1.77;;;;;;;3.77;87.87;103110.19;5088122;28;20016;-75
2022/01/28 02:07:25;;;;;;;13.80;1.90;;;;;;;3.75;87.77;103128.09;5090996;28;20032;-75
2022/01/28 02:09:50;;;;;;;15.48;2.15;;;;;;;3.74;87.68;103123.69;5083552;28;20052;-75
2022/01/28 02:12:15;;;;;;;12.70;1.98;;;;;;;3.73;87.83;103127.03;5097547;28;20028;-75
2022/01/28 02:14:41;;;;;;;13.40;1.92;;;;;;;3.72;88.33;103126.91;5092667;28;20038;-75
2022/01/28 02:17:07;;;;;;;14.82;2.60;;;;;;;3.72;88.50;103119.16;5089976;28;20285;-75
2022/01/28 02:19:32;;;;;;;15.02;2.10;;;;;;;3.71;88.50;103132.81;5090528;28;20073;-75
2022/01/28 02:22:01;;;;;;;16.02;2.35;;;;;;;3.71;88.99;103132.81;5085451;28;20211;-75
2022/01/28 02:24:35;;;;;;;18.95;2.08;;;;;;;3.72;88.77;103134.63;5090753;28;20237;-75
2022/01/28 02:27:01;;;;;;;15.43;1.77;;;;;;;3.71;88.78;103130.25;5090507;28;20016;-75
2022/01/28 02:29:29;;;;;;;13.00;2.38;;;;;;;3.73;88.81;103132.19;5086267;28;20085;-75
2022/01/28 02:31:57;;;;;;;13.43;1.90;;;;;;;3.75;88.89;103135.84;5086479;28;20164;-75
2022/01/28 02:34:22;;;;;;;13.65;2.17;;;;;;;3.75;88.95;103137.47;5082865;28;20020;-75
2022/01/28 02:36:47;;;;;;;19.58;2.53;;;;;;;3.76;88.77;103134.16;5087402;28;20060;-75
2022/01/28 02:39:13;;;;;;;14.90;2.33;;;;;;;3.75;88.79;103132.31;5084904;28;20020;-75
2022/01/28 02:41:42;;;;;;;20.58;2.35;;;;;;;3.75;88.88;103133.25;5087721;28;20012;-75
2022/01/28 02:44:19;;;;;;;;;;;;;;;3.78;89.10;103130.94;5089177;28;20243;-75
2022/01/28 02:46:58;;;;;;;12.07;1.90;;;;;;;3.78;88.74;103135.19;5088077;28;20063;-75
2022/01/28 02:49:27;;;;;;;13.20;1.98;;;;;;;3.76;88.86;103141.88;5085748;28;20039;-75
2022/01/28 02:51:53;;;;;;;14.90;2.15;;;;;;;3.77;89.01;103151.44;5092582;28;20012;-75
2022/01/28 02:54:19;;;;;;;14.27;2.42;;;;;;;3.77;89.19;103156.59;5086421;28;20151;-75
2022/01/28 02:56:50;;;;;;;15.25;2.10;;;;;;;3.78;89.09;103155.81;5088338;28;20022;-75
2022/01/28 02:59:16;;;;;;;11.90;2.10;;;;;;;3.77;89.47;103149.75;5086719;28;20044;-75
2022/01/28 03:01:41;;;;;;;16.67;2.28;;;;;;;3.77;89.41;103149.75;5089872;28;20325;-75
2022/01/28 03:04:08;;;;;;;16.10;2.10;;;;;;;3.78;89.47;103156.72;5082369;28;20013;-75
2022/01/28 03:06:34;;;;;;;15.63;2.53;;;;;;;3.80;89.78;103169.75;5087985;28;20024;-75
2022/01/28 03:09:06;;;;;;;13.10;2.00;;;;;;;3.82;89.89;103170.78;5085301;28;20036;-75
2022/01/28 03:12:19;;;;;;;16.98;3.03;;;;;;;3.85;90.02;103167.56;5090410;28;20028;-75
2022/01/28 03:14:33;;;;;;;15.27;2.47;;;;;;;3.88;90.64;103168.78;5075896;28;20318;-75
2022/01/28 03:17:07;;;;;;;21.30;2.72;;;;;;;3.91;90.55;103173.28;5087022;28;20058;-75
2022/01/28 03:19:54;;;;;;;15.88;2.38;;;;;;;3.95;90.45;103173.69;5080846;28;20061;-75
2022/01/28 03:22:20;;;;;;;26.42;3.15;;;;;;;4.02;90.71;103179.38;5090891;28;20032;-75
2022/01/28 03:24:50;;;;;;;16.55;2.10;;;;;;;4.05;90.73;103177.97;5088586;28;20031;-75
2022/01/28 03:27:28;;;;;;;17.52;2.47;;;;;;;4.09;90.63;103176.59;5083445;28;20028;-75
2022/01/28 03:29:53;;;;;;;14.63;2.70;;;;;;;4.08;89.70;103178.22;5089803;28;20095;-76
2022/01/28 03:32:18;;;;;;;17.25;2.47;;;;;;;4.08;89.71;103179.91;5091120;28;20186;-75
2022/01/28 03:34:43;;;;;;;13.20;2.22;;;;;;;4.05;89.56;103171.91;5089182;28;20012;-75
2022/01/28 03:37:12;;;;;;;16.10;2.40;;;;;;;4.03;90.08;103173.44;5085173;28;20028;-75
2022/01/28 03:39:37;;;;;;;14.77;2.58;;;;;;;4.01;89.29;103175.88;5088991;28;20134;-76
2022/01/28 03:42:04;;;;;;;15.35;2.83;;;;;;;3.95;89.14;103181.44;5090420;28;20012;-76
2022/01/28 03:44:29;;;;;;;21.20;2.80;;;;;;;3.88;89.29;103181.66;5084046;28;20024;-75
2022/01/28 03:46:54;;;;;;;16.88;2.90;;;;;;;3.82;88.99;103189.75;5092846;28;20262;-75
2022/01/28 03:49:20;;;;;;;17.10;3.25;;;;;;;3.79;89.25;103183.41;5084915;28;20019;-76
2022/01/28 03:51:45;;;;;;;17.90;3.10;;;;;;;3.76;89.50;103183.13;5093608;28;20065;-76
2022/01/28 03:54:10;;;;;;;15.23;2.78;;;;;;;3.73;89.26;103172.56;5082384;28;20012;-76
2022/01/28 03:56:36;;;;;;;13.82;2.88;;;;;;;3.71;88.99;103185.31;5083763;28;20016;-75
2022/01/28 03:59:01;;;;;;;22.13;3.63;;;;;;;3.69;89.12;103183.38;5074958;28;20028;-75
2022/01/28 04:01:32;;;;;;;9.88;2.60;;;;;;;3.65;89.04;103184.78;5086123;28;20028;-75
2022/01/28 04:04:36;;;;;;;18.67;3.47;;;;;;;3.63;89.35;103192.34;5083207;28;20036;-75
2022/01/28 04:12:13;;;;;;;12.18;2.78;;;;;;;3.51;89.22;103196.41;5083484;28;20039;-75
2022/01/28 04:17:22;;;;;;;14.63;2.15;;;;;;;3.47;89.33;103195.22;5085525;28;20027;-76
2022/01/28 04:19:49;;;;;;;11.75;2.20;;;;;;;3.44;89.68;103209.50;5093843;28;20174;-75
2022/01/28 04:22:15;;;;;;;13.55;2.55;;;;;;;3.43;89.74;103205.09;5093799;28;20016;-75
2022/01/28 04:24:40;;;;;;;10.15;2.17;;;;;;;3.41;90.10;103204.97;5088918;28;20160;-76
2022/01/28 04:27:06;;;;;;;9.68;2.10;;;;;;;3.41;90.16;103201.50;5084624;28;20020;-75
2022/01/28 04:29:31;;;;;;;11.32;2.28;;;;;;;3.41;90.27;103211.81;5092561;28;20259;-76
2022/01/28 04:31:56;;;;;;;12.82;2.75;;;;;;;3.41;90.11;103204.97;5081514;28;20087;-76
2022/01/28 04:34:23;;;;;;;9.55;1.65;;;;;;;3.41;90.32;103209.22;5093040;28;20008;-75
2022/01/28 04:37:10;;;;;;;9.85;2.42;;;;;;;3.41;90.38;103210.13;5085933;28;20024;-75
2022/01/28 04:40:13;;;;;;;11.88;2.10;;;;;;;3.43;90.23;103220.56;5088050;28;20020;-75
2022/01/28 04:42:43;;;;;;;13.40;2.05;;;;;;;3.41;90.07;103216.97;5088697;28;20039;-76
2022/01/28 04:47:50;;;;;;;10.90;2.15;;;;;;;3.38;90.50;103216.69;5088854;28;20079;-76
2022/01/28 05:03:21;;;;;;;9.50;1.50;;;;;;;3.36;91.08;103229.44;5087852;28;20058;-76
2022/01/28 05:16:34;;;;;;;16.98;4.35;;;;;;;3.29;91.60;103240.84;5089342;28;20032;-75
2022/01/28 05:25:03;;;;;;;13.55;4.40;;;;;;;3.19;91.73;103257.91;5088975;28;20030;-76
2022/01/28 05:27:23;;;;;;;20.27;4.95;;;;;;;3.19;91.84;103260.47;5090037;28;20122;-76
2022/01/28 05:29:48;;;;;;;21.15;4.93;;;;;;;3.17;92.10;103268.03;5086750;28;20062;-76
2022/01/28 05:32:13;;;;;;;16.48;5.15;;;;;;;3.14;92.00;103270.31;5094785;28;20031;-76
2022/01/28 05:34:40;;;;;;;22.92;5.32;;;;;;;3.13;92.85;103273.69;5085779;28;20163;-76
2022/01/28 05:37:07;;;;;;;19.75;6.18;;;;;;;3.14;93.05;103267.75;5095169;28;20047;-76
2022/01/28 05:39:32;;;;;;;23.50;6.13;;;;;;;3.13;92.74;103258.22;5080682;28;20263;-76
2022/01/28 05:41:58;;;;;;;24.23;6.18;;;;;;;3.09;92.14;103267.31;5091560;28;20016;-76
2022/01/28 05:44:23;;;;;;;18.50;5.60;;;;;;;3.06;91.81;103281.59;5087309;28;20160;-76
2022/01/28 05:46:50;;;;;;;22.45;5.82;;;;;;;3.03;92.17;103281.31;5093918;28;20175;-76
2022/01/28 05:49:16;;;;;;;18.10;5.40;;;;;;;3.01;92.47;103280.25;5089314;28;20032;-76
2022/01/28 05:51:42;;;;;;;21.30;5.78;;;;;;;3.01;92.90;103291.44;5089147;28;20194;-76
2022/01/28 05:54:08;;;;;;;18.83;5.70;;;;;;;3.00;92.43;103297.38;5085538;28;20031;-76
2022/01/28 05:56:33;;;;;;;17.88;5.45;;;;;;;3.01;92.47;103300.88;5091127;28;20020;-76
2022/01/28 05:58:59;;;;;;;15.50;5.05;;;;;;;2.99;92.08;103304.97;5091449;28;20039;-76
2022/01/28 06:01:25;;;;;;;18.88;5.05;;;;;;;2.94;92.11;103292.56;5090405;28;20024;-76
2022/01/28 06:03:51;;;;;;;18.67;4.85;;;;;;;2.93;91.80;103295.91;5087598;28;20063;-76
2022/01/28 06:06:22;;;;;;;19.55;4.80;;;;;;;2.89;91.75;103309.25;5089913;28;20044;-76
2022/01/28 06:08:49;;;;;;;20.30;4.55;;;;;;;2.88;91.81;103315.19;5090950;28;20205;-76
2022/01/28 06:11:15;;;;;;;16.45;4.80;;;;;;;2.88;92.08;103315.19;5090930;28;20048;-76
2022/01/28 06:13:42;;;;;;;20.02;4.45;;;;;;;2.88;92.22;103315.19;5093515;28;20065;-76
2022/01/28 06:16:08;;;;;;;15.55;4.40;;;;;;;2.87;91.58;103309.84;5090601;28;20036;-76
2022/01/28 06:18:33;;;;;;;17.02;4.13;;;;;;;2.83;91.55;103318.97;5092041;28;20118;-76
2022/01/28 06:20:58;;;;;;;18.13;4.35;;;;;;;2.80;92.17;103322.94;5089113;28;20039;-76
2022/01/28 06:23:24;;;;;;;13.40;4.13;;;;;;;2.78;91.33;103328.84;5086144;28;20043;-76
2022/01/28 06:25:50;;;;;;;16.45;4.13;;;;;;;2.76;91.69;103327.75;5089955;28;20095;-75
2022/01/28 06:28:15;;;;;;;14.55;5.50;;;;;;;2.75;91.57;103325.03;5090868;28;20146;-76
2022/01/28 06:30:41;;;;;;;15.23;3.95;;;;;;;2.70;91.58;103334.91;5081677;28;20255;-76
2022/01/28 06:33:06;;;;;;;15.40;4.13;;;;;;;2.69;91.78;103345.06;5090637;28;20020;-75
2022/01/28 06:35:31;;;;;;;16.95;4.68;;;;;;;2.68;91.55;103362.19;5095385;28;20028;-75
2022/01/28 06:37:58;;;;;;;16.08;4.40;;;;;;;2.66;91.82;103366.25;5081486;28;20015;-76
2022/01/28 06:40:23;;;;;;;23.42;6.00;;;;;;;2.63;91.86;103363.38;5081263;28;20018;-76
2022/01/28 06:42:48;;;;;;;16.38;4.63;;;;;;;2.58;91.26;103368.09;5078672;28;20171;-75
2022/01/28 06:45:13;;;;;;;21.33;5.10;;;;;;;2.52;90.25;103364.00;5078278;28;20175;-76
2022/01/28 06:47:39;;;;;;;16.80;5.28;;;;;;;2.44;90.37;103358.13;5081038;28;20028;-75
2022/01/28 06:50:06;;;;;;;17.40;5.85;;;;;;;2.37;90.61;103366.00;5094221;28;20028;-75
2022/01/28 06:52:33;;;;;;;15.55;5.75;;;;;;;2.31;91.61;103373.13;5088047;28;20024;-75
2022/01/28 06:55:00;;;;;;;17.00;6.30;;;;;;;2.29;91.57;103370.41;5080766;28;20210;-76
2022/01/28 06:57:26;;;;;;;19.10;7.28;;;;;;;2.26;91.82;103378.72;5076376;28;20043;-75
2022/01/28 06:59:51;;;;;;;20.60;7.00;;;;;;;2.24;92.21;103382.78;5083284;28;20250;-75
2022/01/28 07:02:16;;;;;;;17.15;6.40;;;;;;;2.20;91.34;103387.50;5077201;28;20035;-76
2022/01/28 07:04:42;;;;;;;24.52;6.55;;;;;;;2.13;90.79;103401.44;5104504;28;20254;-75
2022/01/28 07:07:07;;;;;;;18.10;6.90;;;;;;;2.06;90.67;103411.88;5085162;28;20058;-75
2022/01/28 07:09:34;;;;;;;19.85;6.65;;;;;;;2.00;91.08;103424.09;5090912;28;20027;-75
2022/01/28 07:12:00;;;;;;;18.30;6.35;;;;;;;1.94;90.77;103434.69;5105014;28;20098;-76
2022/01/28 07:14:25;;;;;;;20.48;7.63;;;;;;;1.92;91.56;103428.47;5093192;28;20019;-75
2022/01/28 07:16:50;;;;;;;19.88;7.00;;;;;;;1.88;91.58;103419.56;5080411;28;20043;-76
2022/01/28 07:19:16;;;;;;;19.95;7.75;;;;;;;1.87;91.68;103425.44;5093905;28;20043;-76
2022/01/28 07:21:41;;;;;;;19.15;8.40;;;;;;;1.82;91.06;103428.31;5100256;28;20026;-76
2022/01/28 07:24:06;;;;;;;26.02;8.27;;;;;;;1.79;91.86;103436.59;5079236;28;20088;-76
2022/01/28 07:26:31;;;;;;;17.10;7.10;;;;;;;1.77;92.32;103430.41;5088854;28;20251;-76
2022/01/28 07:28:57;;;;;;;20.95;7.03;;;;;;;1.75;92.56;103426.75;5084028;28;20151;-76
2022/01/28 07:31:22;;;;;;;28.33;7.22;;;;;;;1.76;93.03;103437.97;5080672;28;20156;-76
2022/01/28 07:33:48;;;;;;;23.17;7.15;;;;;;;1.77;93.27;103450.97;5089696;28;20021;-76
2022/01/28 07:36:13;;;;;;;19.70;6.75;;;;;;;1.81;93.62;103450.53;5078287;28;20287;-76
2022/01/28 07:38:38;;;;;;;20.33;7.38;;;;;;;1.84;93.18;103456.00;5067543;28;20054;-76
2022/01/28 07:41:05;;;;;;;24.55;7.10;;;;;;;1.85;93.50;103455.22;5076490;28;20263;-76
2022/01/28 07:43:31;;;;;;;20.25;7.13;;;;;;;1.89;93.65;103452.19;5073388;28;20023;-76
2022/01/28 07:45:56;;;;;;;20.52;7.30;;;;;;;1.95;93.72;103454.50;5084558;28;20020;-76
2022/01/28 07:48:22;;;;;;;20.83;6.97;;;;;;;1.99;93.36;103458.28;5080540;28;20044;-76
2022/01/28 07:50:47;;;;;;;27.42;8.05;;;;;;;1.99;93.36;103455.72;5088382;28;20179;-76
2022/01/28 07:53:16;;;;;;;18.75;7.07;;;;;;;2.00;93.36;103458.44;5073027;28;20081;-76
2022/01/28 07:55:42;;;;;;;17.58;6.95;;;;;;;2.01;92.94;103456.78;5069511;28;20036;-76
2022/01/28 07:58:07;;;;;;;22.73;8.25;;;;;;;2.02;93.03;103459.50;5084762;28;20031;-76
2022/01/28 08:00:32;;;;;;;22.48;7.55;;;;;;;2.05;93.18;103459.78;5080260;28;20024;-76
2022/01/28 08:02:58;;;;;;;21.23;7.30;;;;;;;2.10;93.89;103468.00;5093323;28;20066;-76
2022/01/28 08:05:23;;;;;;;20.63;7.40;;;;;;;2.15;93.34;103471.03;5095528;28;20058;-76
2022/01/28 08:07:49;;;;;;;23.08;7.10;;;;;;;2.19;93.65;103468.00;5079135;28;20024;-76
2022/01/28 08:10:16;;;;;;;23.38;7.22;;;;;;;2.22;93.57;103469.22;5079238;28;20027;-76
2022/01/28 08:12:52;;;;;;;23.60;7.03;;;;;;;2.26;93.26;103476.50;5081032;28;20017;-69
2022/01/28 08:15:20;;;;;;;20.23;6.95;;;;;;;2.24;92.96;103485.69;5093312;28;20081;-69
2022/01/28 08:17:46;;;;;;;16.35;6.82;;;;;;;2.24;93.23;103492.53;5080586;28;20013;-69
2022/01/28 08:20:12;;;;;;;17.15;7.38;;;;;;;2.26;93.14;103494.50;5080882;28;20020;-69
2022/01/28 08:23:04;;;;;;;18.30;7.22;;;;;;;2.39;93.85;103490.56;5099019;28;20087;-69
2022/01/28 08:25:34;;;;;;;19.42;6.93;;;;;;;2.65;92.84;103497.38;5100028;28;20175;-69
2022/01/28 08:28:00;;;;;;;20.42;7.10;;;;;;;3.19;90.85;103510.38;5097426;28;20019;-69
2022/01/28 08:30:26;;;;;;;15.38;6.40;;;;;;;3.46;88.95;103507.88;5098138;28;20020;-69
2022/01/28 08:32:52;;;;;;;22.33;7.68;;;;;;;3.92;88.00;103495.81;5096940;28;20024;-69
2022/01/28 08:35:28;;;;;;;23.27;6.35;;;;;;;4.65;85.29;103505.97;5093658;28;20066;-69
2022/01/28 08:37:53;;;;;;;22.08;8.00;;;;;;;5.31;83.22;103513.53;5074000;28;20054;-69
2022/01/28 08:40:19;;;;;;;19.48;7.95;;;;;;;5.75;81.54;103516.50;5096819;28;20156;-69
2022/01/28 08:42:44;;;;;;;19.05;7.88;;;;;;;6.08;80.45;103507.28;5083996;28;20052;-69
2022/01/28 08:45:10;;;;;;;18.20;7.07;;;;;;;6.24;78.72;103500.78;5088776;28;20087;-69
2022/01/28 08:47:35;;;;;;;18.60;7.03;;;;;;;6.14;79.15;103513.72;5094402;28;20024;-68
2022/01/28 08:50:01;;;;;;;18.02;8.50;;;;;;;6.43;78.86;103514.50;5104266;28;20071;-69
2022/01/28 08:52:26;;;;;;;22.73;9.73;;;;;;;6.79;77.44;103509.66;5083352;28;20080;-69
2022/01/28 08:54:51;;;;;;;17.23;8.20;;;;;;;7.00;76.45;103505.31;5082930;28;20020;-76
2022/01/28 08:57:17;;;;;;;22.58;8.77;;;;;;;7.20;75.58;103511.19;5099981;28;20008;-76
2022/01/28 08:59:44;;;;;;;24.40;8.15;;;;;;;7.41;74.67;103505.13;5080688;28;20084;-76
2022/01/28 09:02:10;;;;;;;19.20;9.10;;;;;;;7.58;74.63;103513.38;5083576;28;20047;-76
2022/01/28 09:04:35;;;;;;;23.08;9.25;;;;;;;7.43;74.11;103506.19;5094028;28;20024;-76
2022/01/28 09:07:00;;;;;;;56.03;20.98;;;;;;;7.36;75.19;103509.06;5083398;28;20015;-76
2022/01/28 09:09:26;;;;;;;27.83;9.75;;;;;;;7.61;74.44;103506.72;5081259;28;20175;-76
2022/01/28 09:12:07;;;;;;;36.95;15.07;;;;;;;7.93;73.56;103504.84;5078325;28;20092;-76
2022/01/28 09:14:33;;;;;;;20.13;8.63;;;;;;;8.32;72.53;103511.28;5078435;28;20020;-76
2022/01/28 09:16:58;;;;;;;23.63;9.30;;;;;;;8.62;71.28;103506.63;5080114;28;20020;-76
2022/01/28 09:19:24;;;;;;;30.92;11.55;;;;;;;8.79;70.48;103503.56;5075298;28;20032;-76
2022/01/28 09:21:51;;;;;;;20.65;9.45;;;;;;;8.87;70.41;103502.41;5074835;28;20024;-76
2022/01/28 09:24:16;;;;;;;21.40;9.25;;;;;;;8.84;70.46;103501.31;5077875;28;20076;-76
2022/01/28 09:26:42;;;;;;;23.75;9.88;;;;;;;8.48;71.17;103523.75;5076599;28;20027;-76
2022/01/28 09:29:07;;;;;;;22.15;9.95;;;;;;;8.22;72.78;103519.16;5082457;28;20039;-76
2022/01/28 09:31:32;;;;;;;29.45;11.70;;;;;;;8.16;73.46;103519.59;5100420;28;20099;-76
2022/01/28 09:33:58;;;;;;;24.70;10.40;;;;;;;8.26;73.47;103524.69;5107148;28;20273;-76
2022/01/28 09:36:23;;;;;;;28.92;10.63;;;;;;;8.36;72.98;103527.19;5092083;28;20236;-76
2022/01/28 09:38:49;;;;;;;23.52;11.15;;;;;;;8.46;73.03;103518.47;5106908;28;20335;-76
2022/01/28 09:41:14;;;;;;;27.60;10.93;;;;;;;8.48;73.14;103529.84;5093887;28;20091;-76
2022/01/28 09:43:43;;;;;;;29.20;11.70;;;;;;;8.55;72.99;103522.53;5100143;28;20024;-76
2022/01/28 09:46:08;;;;;;;29.23;11.38;;;;;;;8.60;72.72;103526.38;5091544;28;20024;-76
2022/01/28 09:48:34;;;;;;;28.33;12.10;;;;;;;8.41;73.10;103526.66;5095333;28;20332;-76
2022/01/28 09:51:01;;;;;;;25.83;12.13;;;;;;;8.05;74.70;103528.25;5091161;28;20031;-76
2022/01/28 09:53:26;;;;;;;28.20;11.85;;;;;;;7.92;75.91;103531.56;5095096;28;20247;-76
2022/01/28 09:55:52;;;;;;;34.53;12.73;;;;;;;7.64;76.49;103538.09;5100022;28;20074;-76
2022/01/28 09:58:17;;;;;;;32.60;12.40;;;;;;;7.36;77.39;103547.97;5090984;28;20027;-79
2022/01/28 10:00:43;;;;;;;41.17;15.77;;;;;;;7.16;78.49;103550.66;5095849;28;20043;-75
2022/01/28 10:03:12;;;;;;;25.00;12.73;;;;;;;6.88;79.41;103548.38;5094045;28;20020;-75
2022/01/28 10:05:40;;;;;;;37.28;13.07;;;;;;;6.66;80.71;103548.28;5097309;28;20166;-75
2022/01/28 10:08:14;;;;;;;33.03;12.95;;;;;;;6.51;81.51;103542.75;5097370;28;20044;-75
2022/01/28 10:11:14;;;;;;;31.75;13.85;;;;;;;6.40;82.19;103544.41;5098321;28;20035;-75
2022/01/28 10:13:48;;;;;;;31.92;12.27;;;;;;;6.26;83.18;103548.44;5076016;28;20048;-75
2022/01/28 10:16:28;;;;;;;27.42;11.63;;;;;;;6.17;83.66;103551.16;5081290;28;20299;-75
2022/01/28 10:18:54;;;;;;;;;;;;;;;6.17;83.73;103545.97;5083417;28;20026;-76
2022/01/28 10:21:36;;;;;;;27.75;11.73;;;;;;;6.07;84.72;103552.03;5088986;28;20089;-75
2022/01/28 10:24:16;;;;;;;25.10;11.45;;;;;;;6.02;84.81;103550.72;5080087;28;20048;-75
2022/01/28 10:26:52;;;;;;;27.02;11.50;;;;;;;6.03;85.13;103554.25;5083799;28;20043;-75
2022/01/28 10:29:31;;;;;;;25.17;10.35;;;;;;;6.01;85.12;103554.13;5078862;28;20081;-75
2022/01/28 10:32:00;;;;;;;25.27;11.45;;;;;;;5.97;85.27;103561.41;5092208;28;20046;-75
2022/01/28 10:34:32;;;;;;;30.75;11.38;;;;;;;5.95;85.81;103558.72;5073347;28;20023;-75
2022/01/28 10:37:27;;;;;;;27.00;12.20;;;;;;;5.96;86.18;103562.22;5073464;28;20012;-75
2022/01/28 10:39:57;;;;;;;25.98;11.05;;;;;;;5.95;86.25;103556.13;5077959;28;20248;-75
2022/01/28 10:42:25;;;;;;;27.92;11.30;;;;;;;5.98;86.49;103560.69;5072676;28;20269;-75
2022/01/28 10:44:54;;;;;;;28.55;11.27;;;;;;;6.00;87.12;103562.66;5074569;28;20036;-75
2022/01/28 10:47:34;;;;;;;28.52;9.85;;;;;;;6.05;86.41;103561.38;5096537;28;20247;-75
2022/01/28 10:50:01;;;;;;;42.55;11.10;;;;;;;6.07;86.14;103554.63;5078734;28;20032;-77
2022/01/28 10:52:33;;;;;;;34.72;11.00;;;;;;;6.12;86.58;103551.53;5081286;28;20020;-81
2022/01/28 10:54:59;;;;;;;25.15;10.63;;;;;;;6.16;86.45;103551.03;5095782;28;20061;-76
2022/01/28 10:57:24;;;;;;;27.33;11.07;;;;;;;6.19;86.47;103549.59;5103464;28;20016;-76
2022/01/28 10:59:49;;;;;;;26.35;11.32;;;;;;;6.25;86.41;103549.22;5098664;28;20035;-75
2022/01/28 11:02:16;;;;;;;27.67;11.30;;;;;;;6.27;86.16;103550.22;5087860;28;20023;-75
2022/01/28 11:04:43;;;;;;;28.85;11.23;;;;;;;6.29;86.86;103535.75;5096434;28;20033;-76
2022/01/28 11:07:08;;;;;;;25.55;10.18;;;;;;;6.31;86.99;103534.19;5104957;28;20095;-75
2022/01/28 11:09:33;;;;;;;24.70;11.15;;;;;;;6.38;87.15;103533.94;5104980;28;20020;-75
2022/01/28 11:12:02;;;;;;;31.30;9.50;;;;;;;6.44;86.56;103533.53;5105031;28;20114;-76
2022/01/28 11:14:28;;;;;;;29.40;9.17;;;;;;;6.50;86.10;103526.28;5075574;28;20016;-75
2022/01/28 11:16:53;;;;;;;27.90;9.60;;;;;;;6.55;86.56;103514.63;5076265;28;20085;-76
2022/01/28 11:19:22;;;;;;;35.95;11.30;;;;;;;6.62;86.17;103516.06;5074133;28;20032;-75
2022/01/28 11:22:13;;;;;;;33.35;10.05;;;;;;;6.69;85.90;103507.09;5078282;28;20008;-75
2022/01/28 11:25:00;;;;;;;24.52;7.38;;;;;;;6.75;85.86;103503.31;5079144;28;20024;-76
2022/01/28 11:27:34;;;;;;;24.63;7.18;;;;;;;6.78;84.03;103503.56;5102843;28;20024;-75
2022/01/28 11:30:18;;;;;;;18.63;6.18;;;;;;;6.78;83.06;103494.91;5100557;28;20036;-75
2022/01/28 11:33:00;;;;;;;16.20;6.28;;;;;;;6.81;83.45;103496.81;5103069;28;20015;-75
2022/01/28 11:35:30;;;;;;;21.42;7.15;;;;;;;6.84;83.63;103491.91;5104523;28;20301;-75
2022/01/28 11:38:01;;;;;;;20.70;7.03;;;;;;;6.90;84.14;103495.00;5104184;28;20024;-75
2022/01/28 11:40:27;;;;;;;21.45;6.93;;;;;;;6.95;83.95;103496.25;5104510;28;20016;-75
2022/01/28 11:43:24;;;;;;;25.27;8.63;;;;;;;6.97;84.21;103481.75;5093674;28;20027;-75
2022/01/28 11:46:11;;;;;;;22.90;7.35;;;;;;;6.98;84.14;103486.16;5087989;28;20054;-75
2022/01/28 11:48:51;;;;;;;19.65;6.78;;;;;;;7.00;83.06;103489.78;5078796;28;20020;-79
2022/01/28 11:51:16;;;;;;;20.45;7.63;;;;;;;7.03;83.30;103484.81;5090198;28;20080;-77
2022/01/28 11:53:56;;;;;;;19.15;6.63;;;;;;;7.08;82.75;103483.53;5095472;28;20178;-76
2022/01/28 11:56:24;;;;;;;20.38;6.28;;;;;;;7.13;82.17;103483.91;5097300;28;20028;-76
2022/01/28 11:58:58;;;;;;;18.38;6.78;;;;;;;7.17;80.56;103482.44;5090289;28;20327;-77
2022/01/28 12:01:45;;;;;;;21.88;6.68;;;;;;;7.21;80.06;103481.91;5079678;28;20024;-76
2022/01/28 12:04:30;;;;;;;18.40;5.70;;;;;;;7.31;82.87;103479.25;5096817;28;20066;-77
2022/01/28 12:07:03;;;;;;;24.77;7.55;;;;;;;7.36;82.13;103485.72;5100235;28;20024;-76
2022/01/28 12:09:33;;;;;;;18.85;7.10;;;;;;;7.41;81.65;103480.91;5098839;28;20024;-77
2022/01/28 12:11:59;;;;;;;21.25;6.20;;;;;;;7.44;79.98;103479.47;5102300;28;20024;-76
2022/01/28 12:14:55;;;;;;;24.88;5.97;;;;;;;7.49;81.61;103478.13;5098566;28;20023;-76
2022/01/28 12:17:29;;;;;;;17.02;5.40;;;;;;;7.55;80.74;103469.03;5082400;28;20029;-76
2022/01/28 12:20:17;;;;;;;17.42;5.53;;;;;;;7.62;81.24;103466.13;5067590;28;20094;-76
2022/01/28 12:23:05;;;;;;;21.98;5.18;;;;;;;7.68;79.45;103463.09;5092788;28;20043;-77
2022/01/28 12:25:36;;;;;;;19.77;5.35;;;;;;;7.70;76.91;103446.84;5093165;28;20328;-77
2022/01/28 12:28:11;;;;;;;18.60;5.30;;;;;;;7.68;77.13;103452.72;5084023;28;20176;-77
2022/01/28 12:30:37;;;;;;;24.20;5.13;;;;;;;7.61;77.49;103443.56;5084289;28;20032;-76
2022/01/28 12:33:03;;;;;;;10.75;4.30;;;;;;;7.55;77.63;103441.38;5100140;28;20173;-76
2022/01/28 12:35:28;;;;;;;18.48;4.22;;;;;;;7.46;75.33;103446.75;5081296;28;20037;-77
2022/01/28 12:37:59;;;;;;;16.38;4.20;;;;;;;7.39;75.42;103440.97;5092227;28;20016;-81
2022/01/28 12:40:35;;;;;;;18.77;4.05;;;;;;;7.34;76.04;103435.41;5087913;28;20206;-76